Time;durP1;ratioP1;P1;durP2;ratioP2;P2;SDS_P1;SDS_P2;PMS_P1;PMS_P2;Temp;Humidity;BMP_temperature;BMP_pressure;BME280_temperature;BME280_humidity;BME280_pressure;Samples;Min_cycle;Max_cycle;Signal;HPM_P1;HPM_P2
2024/01/12 00:02:22;;;;;;;6.35;3.83;;;12.50;95.40;;;;;;5049366;28;20654;-71
2024/01/12 00:05:26;;;;;;;7.40;3.95;;;12.00;95.60;;;;;;5097212;27;20044;-72
2024/01/12 00:08:32;;;;;;;5.38;3.05;;;12.80;95.90;;;;;;5049680;28;20048;-72
2024/01/12 00:11:36;;;;;;;7.10;4.47;;;12.70;95.40;;;;;;5049485;28;20052;-72
2024/01/12 00:14:40;;;;;;;7.18;4.35;;;12.50;95.20;;;;;;5049516;28;20503;-72
2024/01/12 00:17:43;;;;;;;7.15;4.28;;;10.30;93.60;;;;;;5049166;28;20089;-72
2024/01/12 00:20:47;;;;;;;11.85;5.05;;;9.90;94.40;;;;;;5049539;28;20052;-73
2024/01/12 00:23:51;;;;;;;9.55;5.38;;;10.30;93.50;;;;;;5097610;27;20052;-71
2024/01/12 00:26:55;;;;;;;8.95;6.05;;;12.10;95.00;;;;;;5049547;28;20048;-72
2024/01/12 00:29:59;;;;;;;9.70;5.43;;;10.40;93.70;;;;;;5097209;27;20051;-72
2024/01/12 00:33:05;;;;;;;9.95;6.15;;;10.10;93.80;;;;;;5049569;28;20109;-72
2024/01/12 00:36:09;;;;;;;7.97;5.03;;;10.40;94.30;;;;;;5049060;28;20031;-72
2024/01/12 00:39:14;;;;;;;8.48;4.88;;;11.00;95.40;;;;;;5096974;27;20051;-72
2024/01/12 00:42:18;;;;;;;7.75;5.30;;;10.00;94.20;;;;;;5096513;27;20048;-73
2024/01/12 00:45:22;;;;;;;9.25;5.30;;;9.90;94.50;;;;;;5096760;27;20052;-72
2024/01/12 00:48:26;;;;;;;6.53;4.55;;;10.80;95.80;;;;;;5049369;28;20503;-72
2024/01/12 00:51:30;;;;;;;7.85;4.03;;;11.80;95.50;;;;;;5048934;28;20482;-72
2024/01/12 00:54:34;;;;;;;6.85;4.32;;;9.60;95.00;;;;;;5049155;28;20514;-73
2024/01/12 00:57:38;;;;;;;5.03;3.63;;;9.50;94.80;;;;;;5048845;28;20033;-72
2024/01/12 01:00:42;;;;;;;6.10;3.78;;;10.90;95.50;;;;;;5049125;28;20048;-72
2024/01/12 01:03:47;;;;;;;6.93;4.28;;;;;;;;;;5048323;28;20060;-72
2024/01/12 01:06:51;;;;;;;6.57;3.58;;;;;;;;;;5048548;28;20476;-72
2024/01/12 01:09:55;;;;;;;6.35;3.80;;;8.70;95.50;;;;;;5048867;28;20045;-73
2024/01/12 01:12:59;;;;;;;7.03;4.28;;;7.60;95.20;;;;;;5048554;28;20033;-73
2024/01/12 01:16:04;;;;;;;4.85;3.25;;;9.70;94.10;;;;;;5048395;28;20048;-73
2024/01/12 01:19:08;;;;;;;6.60;4.03;;;9.10;95.60;;;;;;5048375;28;20060;-73
2024/01/12 01:22:11;;;;;;;5.55;3.20;;;8.50;95.50;;;;;;5048540;28;20058;-73
2024/01/12 01:25:15;;;;;;;4.60;2.75;;;13.60;96.40;;;;;;5084489;28;20037;-73
2024/01/12 01:28:20;;;;;;;5.47;3.00;;;9.00;95.60;;;;;;5048484;28;20064;-73
2024/01/12 01:31:23;;;;;;;4.35;2.90;;;8.80;95.60;;;;;;5048352;28;20533;-73
2024/01/12 01:34:27;;;;;;;3.92;2.80;;;8.00;95.60;;;;;;5048528;28;20052;-72
2024/01/12 01:37:31;;;;;;;4.93;3.17;;;9.80;94.00;;;;;;5048455;28;20041;-73
2024/01/12 01:40:35;;;;;;;4.53;3.03;;;8.30;95.40;;;;;;5048403;28;20041;-72
2024/01/12 01:43:39;;;;;;;4.47;2.90;;;8.30;95.40;;;;;;5048483;28;20395;-72
2024/01/12 01:46:44;;;;;;;4.35;2.78;;;8.00;95.60;;;;;;5047953;28;20503;-72
2024/01/12 01:49:47;;;;;;;4.70;3.08;;;8.40;95.60;;;;;;5084277;28;20042;-71
2024/01/12 01:52:52;;;;;;;5.25;3.10;;;7.90;95.80;;;;;;5095712;27;20398;-73
2024/01/12 01:55:56;;;;;;;4.28;2.95;;;;;;;;;;5048002;28;20382;-72
2024/01/12 01:59:00;;;;;;;4.18;2.53;;;10.10;94.40;;;;;;5047815;28;20034;-72
2024/01/12 02:02:04;;;;;;;6.30;2.53;;;9.90;94.70;;;;;;5095456;28;20056;-71
2024/01/12 02:05:08;;;;;;;3.05;2.35;;;;;;;;;;5047711;28;20392;-72
2024/01/12 02:08:12;;;;;;;3.85;2.40;;;8.10;96.10;;;;;;5095630;28;20041;-72
2024/01/12 02:11:16;;;;;;;2.78;2.00;;;10.30;97.00;;;;;;5047774;28;20052;-72
2024/01/12 02:14:20;;;;;;;5.00;2.08;;;9.90;96.90;;;;;;5048143;28;20040;-72
2024/01/12 02:17:24;;;;;;;3.40;2.33;;;;;;;;;;5086576;28;20061;-73
2024/01/12 02:20:28;;;;;;;2.58;2.00;;;9.60;96.90;;;;;;5051277;28;20029;-73
2024/01/12 02:23:32;;;;;;;3.17;2.08;;;8.50;96.80;;;;;;5051749;28;20041;-73
2024/01/12 02:26:36;;;;;;;3.70;1.90;;;8.80;96.90;;;;;;5051386;28;20033;-73
2024/01/12 02:29:40;;;;;;;4.93;2.55;;;;;;;;;;5051522;28;20040;-72
2024/01/12 02:32:44;;;;;;;4.28;2.50;;;8.80;96.70;;;;;;5051498;28;20036;-73
2024/01/12 02:35:48;;;;;;;3.72;2.33;;;10.20;95.00;;;;;;5051579;28;20025;-73
2024/01/12 02:38:54;;;;;;;3.47;2.40;;;13.10;97.10;;;;;;5051540;28;20392;-72
2024/01/12 02:41:59;;;;;;;5.22;2.42;;;8.10;96.00;;;;;;5051106;28;20056;-72
2024/01/12 02:45:03;;;;;;;3.55;2.28;;;10.20;96.20;;;;;;5098836;27;20040;-73
2024/01/12 02:48:07;;;;;;;2.38;2.08;;;;;;;;;;5051122;28;20048;-73
2024/01/12 02:51:11;;;;;;;4.07;2.53;;;8.70;96.10;;;;;;5098588;27;20468;-72
2024/01/12 02:54:15;;;;;;;5.13;3.03;;;11.50;96.30;;;;;;5098456;27;20041;-73
2024/01/12 02:57:19;;;;;;;5.30;3.38;;;8.50;95.60;;;;;;5087028;28;20052;-72
2024/01/12 03:00:23;;;;;;;5.85;3.53;;;10.80;95.80;;;;;;5050733;28;20050;-73
2024/01/12 03:03:27;;;;;;;6.38;3.95;;;9.00;96.00;;;;;;5098712;27;20423;-72
2024/01/12 03:06:31;;;;;;;6.95;4.45;;;8.60;95.90;;;;;;5098309;27;20029;-72
2024/01/12 03:09:35;;;;;;;6.93;3.97;;;8.30;95.90;;;;;;5050731;28;20064;-72
2024/01/12 03:12:39;;;;;;;6.03;3.78;;;10.20;94.60;;;;;;5050681;28;20056;-72
2024/01/12 03:15:43;;;;;;;5.38;3.13;;;12.60;96.40;;;;;;5050654;28;20048;-72
2024/01/12 03:18:51;;;;;;;5.57;3.45;;;12.00;96.20;;;;;;5098031;27;20048;-73
2024/01/12 03:21:55;;;;;;;9.57;4.60;;;11.00;96.30;;;;;;5050299;28;20518;-72
2024/01/12 03:24:59;;;;;;;6.90;4.57;;;13.40;97.20;;;;;;5050392;28;20052;-72
2024/01/12 03:28:03;;;;;;;6.20;4.40;;;8.80;96.20;;;;;;5050274;28;20674;-73
2024/01/12 03:31:06;;;;;;;8.35;4.88;;;10.10;95.00;;;;;;5050360;28;20500;-72
2024/01/12 03:34:10;;;;;;;7.47;4.88;;;11.60;96.60;;;;;;5098489;27;20040;-72
2024/01/12 03:37:15;;;;;;;7.50;4.60;;;10.10;94.70;;;;;;5050229;28;20044;-72
2024/01/12 03:40:19;;;;;;;6.50;4.93;;;13.60;97.30;;;;;;5050112;28;20044;-73
2024/01/12 03:43:24;;;;;;;9.10;4.95;;;;;;;;;;5097354;27;20056;-71
2024/01/12 03:46:28;;;;;;;8.65;5.20;;;10.20;94.60;;;;;;5049760;28;20041;-72
2024/01/12 03:49:32;;;;;;;8.63;4.50;;;9.20;95.80;;;;;;5074566;28;20052;-73
2024/01/12 03:52:36;;;;;;;9.02;5.30;;;;;;;;;;5097810;27;20041;-73
2024/01/12 03:55:40;;;;;;;11.23;4.85;;;12.90;96.60;;;;;;5085546;28;20037;-73
2024/01/12 03:58:45;;;;;;;9.25;4.85;;;10.10;95.70;;;;;;5085972;27;20199;-72
2024/01/12 04:01:48;;;;;;;7.47;4.85;;;9.80;93.90;;;;;;5097722;27;20052;-72
2024/01/12 04:04:52;;;;;;;11.10;5.32;;;10.60;95.70;;;;;;5049775;28;20033;-72
2024/01/12 04:07:56;;;;;;;11.52;4.80;;;9.10;95.20;;;;;;5049990;28;20626;-72
2024/01/12 04:11:00;;;;;;;9.15;4.97;;;8.70;94.70;;;;;;5037879;28;20044;-71
2024/01/12 04:14:03;;;;;;;10.43;4.90;;;9.10;93.30;;;;;;5049946;28;20049;-72
2024/01/12 04:17:07;;;;;;;8.38;5.10;;;8.60;94.90;;;;;;5097381;27;20519;-73
2024/01/12 04:20:11;;;;;;;8.55;5.13;;;13.30;95.80;;;;;;5049800;28;20067;-72
2024/01/12 04:23:15;;;;;;;8.23;4.80;;;11.10;95.20;;;;;;5049402;28;20394;-72
2024/01/12 04:26:19;;;;;;;7.63;4.90;;;;;;;;;;5097369;27;20047;-72
2024/01/12 04:29:23;;;;;;;7.63;4.50;;;11.40;94.80;;;;;;5049275;28;20488;-72
2024/01/12 04:32:27;;;;;;;8.85;4.38;;;9.00;94.20;;;;;;5049578;28;20044;-72
2024/01/12 04:35:31;;;;;;;8.30;4.47;;;9.20;94.20;;;;;;5049283;28;20381;-72
2024/01/12 04:38:35;;;;;;;7.68;4.40;;;8.90;94.00;;;;;;5096332;27;20401;-72
2024/01/12 04:41:39;;;;;;;8.35;5.10;;;9.40;94.20;;;;;;5085389;27;20053;-72
2024/01/12 04:44:43;;;;;;;8.00;4.43;;;10.60;94.60;;;;;;5049056;28;20037;-71
2024/01/12 04:47:47;;;;;;;9.52;4.45;;;12.50;94.90;;;;;;5096573;27;20040;-73
2024/01/12 04:50:52;;;;;;;8.23;4.85;;;;;;;;;;5048842;28;20056;-71
2024/01/12 04:53:56;;;;;;;8.68;4.70;;;8.70;94.50;;;;;;5096689;27;20045;-73
2024/01/12 04:57:00;;;;;;;10.93;4.90;;;;;;;;;;5048894;28;20053;-72
2024/01/12 05:00:05;;;;;;;9.10;4.57;;;10.10;94.80;;;;;;5048772;28;20040;-72
2024/01/12 05:03:10;;;;;;;7.97;5.00;;;8.30;94.40;;;;;;5048582;28;20052;-72
2024/01/12 05:06:14;;;;;;;10.70;4.72;;;10.50;95.10;;;;;;5048890;28;20488;-72
2024/01/12 05:09:18;;;;;;;11.18;5.05;;;13.50;95.80;;;;;;5048976;28;20055;-73
2024/01/12 05:12:22;;;;;;;10.85;4.50;;;9.20;94.70;;;;;;5096634;27;20032;-72
2024/01/12 05:15:25;;;;;;;12.27;4.60;;;8.60;94.80;;;;;;5084370;28;20118;-73
2024/01/12 05:18:29;;;;;;;11.82;5.18;;;8.60;94.80;;;;;;5048371;28;20528;-71
2024/01/12 05:21:34;;;;;;;7.32;4.13;;;9.40;95.20;;;;;;5048432;28;20105;-72
2024/01/12 05:24:37;;;;;;;9.07;4.78;;;10.20;93.70;;;;;;5048665;28;20070;-72
2024/01/12 05:27:42;;;;;;;7.03;4.47;;;8.80;95.30;;;;;;5048471;28;20048;-72
2024/01/12 05:30:46;;;;;;;14.18;5.30;;;8.70;95.40;;;;;;5095942;27;20033;-72
2024/01/12 05:33:51;;;;;;;6.60;4.65;;;8.60;95.50;;;;;;5048638;28;20040;-71
2024/01/12 05:36:55;;;;;;;7.10;4.95;;;10.10;94.00;;;;;;5048681;28;20057;-73
2024/01/12 05:39:59;;;;;;;10.00;5.10;;;9.70;94.20;;;;;;5084406;28;20389;-72
2024/01/12 05:43:03;;;;;;;12.52;6.05;;;9.90;96.30;;;;;;5095573;27;20056;-72
2024/01/12 05:46:07;;;;;;;10.50;5.75;;;10.30;94.50;;;;;;5048208;28;20048;-72
2024/01/12 05:49:12;;;;;;;12.80;6.40;;;;;;;;;;5048268;28;20048;-72
2024/01/12 05:52:16;;;;;;;10.38;6.13;;;10.10;94.20;;;;;;5048111;28;20043;-72
2024/01/12 05:55:20;;;;;;;12.93;6.40;;;8.20;96.10;;;;;;5048005;28;20052;-72
2024/01/12 05:58:24;;;;;;;12.43;6.25;;;8.30;95.90;;;;;;5095658;28;20048;-73
2024/01/12 06:01:28;;;;;;;11.93;6.20;;;10.40;96.70;;;;;;5048105;28;20048;-72
2024/01/12 06:04:33;;;;;;;12.52;6.63;;;8.00;96.20;;;;;;5095495;28;20040;-72
2024/01/12 06:07:37;;;;;;;12.63;6.68;;;8.50;96.10;;;;;;5095556;28;20040;-71
2024/01/12 06:10:41;;;;;;;11.73;5.65;;;10.50;94.90;;;;;;5095301;28;20051;-72
2024/01/12 06:13:45;;;;;;;14.40;7.50;;;13.60;97.30;;;;;;5048071;28;20052;-72
2024/01/12 06:16:49;;;;;;;13.45;6.07;;;8.40;95.70;;;;;;5048112;28;20499;-72
2024/01/12 06:19:53;;;;;;;15.02;6.07;;;7.80;94.00;;;;;;5048087;28;20400;-73
2024/01/12 06:22:57;;;;;;;9.30;6.20;;;13.40;96.50;;;;;;5083701;28;20404;-73
2024/01/12 06:26:01;;;;;;;20.88;6.47;;;8.60;94.80;;;;;;5047616;28;20033;-73
2024/01/12 06:29:05;;;;;;;10.82;6.55;;;12.40;95.60;;;;;;5047921;28;20051;-72
2024/01/12 06:32:09;;;;;;;13.05;6.32;;;13.30;94.50;;;;;;5047920;28;20400;-72
2024/01/12 06:35:14;;;;;;;13.48;7.05;;;;;;;;;;5047433;28;20040;-72
2024/01/12 06:38:17;;;;;;;12.07;6.70;;;8.30;94.50;;;;;;5095203;28;20048;-73
2024/01/12 06:41:21;;;;;;;13.73;6.75;;;8.40;94.90;;;;;;5047593;28;20044;-72
2024/01/12 06:44:26;;;;;;;17.10;6.68;;;8.80;94.60;;;;;;5047005;28;20064;-74
2024/01/12 06:47:30;;;;;;;15.32;6.30;;;11.00;94.80;;;;;;5047541;28;20040;-72
2024/01/12 06:50:33;;;;;;;11.73;6.05;;;8.40;93.90;;;;;;5047186;28;20395;-72
2024/01/12 06:53:38;;;;;;;12.70;6.15;;;;;;;;;;5047424;28;20040;-70
2024/01/12 06:56:42;;;;;;;13.00;6.28;;;13.60;95.10;;;;;;5047152;28;20036;-72
2024/01/12 06:59:46;;;;;;;13.05;6.82;;;;;;;;;;5095138;28;20055;-72
2024/01/12 07:02:50;;;;;;;14.85;6.20;;;10.10;92.50;;;;;;5049059;28;20051;-73
2024/01/12 07:05:54;;;;;;;10.45;6.53;;;10.50;94.20;;;;;;5086622;28;20044;-72
2024/01/12 07:08:58;;;;;;;15.43;6.70;;;12.70;94.50;;;;;;5050335;28;20044;-72
2024/01/12 07:12:03;;;;;;;12.75;6.25;;;8.50;93.60;;;;;;5050550;28;20036;-70
2024/01/12 07:15:08;;;;;;;16.48;6.78;;;10.60;93.80;;;;;;5098485;27;20401;-71
2024/01/12 07:18:13;;;;;;;15.70;6.97;;;;;;;;;;5097987;27;20504;-71
2024/01/12 07:21:17;;;;;;;14.98;6.65;;;12.20;94.00;;;;;;5050050;28;20071;-71
2024/01/12 07:24:20;;;;;;;10.40;6.25;;;12.40;93.70;;;;;;5049936;28;20056;-75
2024/01/12 07:27:24;;;;;;;11.15;6.40;;;9.80;93.00;;;;;;5097963;27;20036;-74
2024/01/12 07:30:29;;;;;;;15.80;7.22;;;10.30;92.10;;;;;;5097847;27;20043;-74
2024/01/12 07:33:32;;;;;;;13.55;6.60;;;12.30;93.50;;;;;;5050469;28;20052;-75
2024/01/12 07:36:37;;;;;;;15.23;6.80;;;9.90;92.50;;;;;;5050418;28;20060;-74
2024/01/12 07:39:42;;;;;;;12.05;6.40;;;10.20;92.60;;;;;;5050087;28;20044;-73
2024/01/12 07:42:46;;;;;;;19.45;7.05;;;10.80;91.90;;;;;;5049767;28;20063;-73
2024/01/12 07:45:50;;;;;;;12.23;6.43;;;10.70;91.50;;;;;;5050146;28;20065;-77
2024/01/12 07:48:56;;;;;;;13.48;6.75;;;10.30;91.90;;;;;;5086513;28;20055;-76
2024/01/12 07:52:00;;;;;;;9.60;5.80;;;10.40;92.00;;;;;;5097914;27;20051;-78
2024/01/12 07:55:05;;;;;;;15.65;7.00;;;10.30;92.00;;;;;;5049930;28;20044;-76
2024/01/12 07:58:09;;;;;;;18.95;7.22;;;10.50;91.70;;;;;;5049553;28;20104;-79
2024/01/12 08:01:14;;;;;;;11.57;6.90;;;11.10;90.90;;;;;;5049922;28;20040;-72
2024/01/12 08:04:18;;;;;;;12.00;6.18;;;10.40;91.30;;;;;;5049317;28;20068;-76
2024/01/12 08:07:22;;;;;;;14.70;7.20;;;12.90;92.10;;;;;;5049742;28;20066;-73
2024/01/12 08:10:26;;;;;;;10.40;6.22;;;11.00;90.80;;;;;;5049379;28;20151;-73
2024/01/12 08:13:30;;;;;;;9.20;6.05;;;11.20;90.00;;;;;;5048591;28;20040;-73
2024/01/12 08:16:34;;;;;;;8.77;5.70;;;11.10;89.60;;;;;;5097479;27;20047;-72
2024/01/12 08:19:38;;;;;;;11.55;5.53;;;;;;;;;;5049426;28;20444;-74
2024/01/12 08:22:43;;;;;;;8.82;5.35;;;;;;;;;;5049385;28;20071;-75
2024/01/12 08:25:47;;;;;;;12.15;5.57;;;;;;;;;;5049269;28;20033;-73
2024/01/12 08:28:55;;;;;;;11.88;5.20;;;;;;;;;;5049398;28;20044;-75
2024/01/12 08:31:59;;;;;;;10.18;5.30;;;;;;;;;;5048875;28;20499;-74
2024/01/12 08:35:03;;;;;;;10.43;6.28;;;;;;;;;;5049128;28;20044;-75
2024/01/12 08:38:08;;;;;;;9.93;4.70;;;;;;;;;;5049240;28;20052;-75
2024/01/12 08:41:12;;;;;;;8.95;4.65;;;;;;;;;;5049246;28;20045;-78
2024/01/12 08:44:16;;;;;;;8.35;4.35;;;;;;;;;;5096705;27;20378;-74
2024/01/12 08:47:20;;;;;;;10.40;3.92;;;;;;;;;;5049119;28;20033;-77
2024/01/12 08:50:25;;;;;;;11.00;5.05;;;;;;;;;;5049110;28;20052;-78
2024/01/12 08:53:29;;;;;;;10.55;5.20;;;;;;;;;;5049113;28;20048;-77
2024/01/12 08:56:33;;;;;;;8.82;4.70;;;;;;;;;;5048791;28;20040;-76
2024/01/12 08:59:37;;;;;;;8.35;3.90;;;;;;;;;;5048914;28;20389;-76
2024/01/12 09:02:42;;;;;;;7.45;3.85;;;;;;;;;;5048581;28;20048;-75
2024/01/12 09:05:47;;;;;;;11.38;3.50;;;;;;;;;;5095988;27;20040;-75
2024/01/12 09:08:51;;;;;;;14.88;3.90;;;;;;;;;;5048378;28;20048;-75
2024/01/12 09:11:55;;;;;;;12.23;3.90;;;;;;;;;;5048891;28;20048;-75
2024/01/12 09:15:00;;;;;;;11.77;4.25;;;;;;;;;;5048936;28;20085;-74
2024/01/12 09:18:05;;;;;;;9.85;4.05;;;;;;;;;;5048683;28;20059;-72
2024/01/12 09:21:09;;;;;;;6.82;3.80;;;;;;;;;;5048851;28;20041;-73
2024/01/12 09:24:13;;;;;;;6.50;3.90;;;;;;;;;;5096309;27;20040;-74
2024/01/12 09:27:18;;;;;;;6.55;4.30;;;;;;;;;;5095861;27;20481;-72
2024/01/12 09:30:22;;;;;;;10.48;3.67;;;;;;;;;;5048275;28;20040;-77
2024/01/12 09:33:27;;;;;;;10.05;4.32;;;;;;;;;;5048376;28;20056;-75
2024/01/12 09:36:31;;;;;;;9.23;3.97;;;;;;;;;;5097063;27;20052;-75
2024/01/12 09:39:35;;;;;;;11.77;4.50;;;;;;;;;;5050159;28;20036;-80
2024/01/12 09:42:43;;;;;;;9.85;4.45;;;12.70;80.10;;;;;;5049289;28;20048;-75
2024/01/12 09:45:50;;;;;;;9.23;4.10;;;12.90;79.30;;;;;;5048001;28;20048;-73
2024/01/12 09:48:55;;;;;;;8.35;4.90;;;;;;;;;;5048088;28;20065;-73
2024/01/12 09:52:01;;;;;;;7.65;4.82;;;13.10;79.30;;;;;;5048469;28;20492;-80
2024/01/12 09:55:06;;;;;;;7.88;4.20;;;13.40;80.70;;;;;;5048198;28;20579;-73
2024/01/12 09:58:10;;;;;;;10.75;5.50;;;;;;;;;;5048116;28;20036;-70
2024/01/12 10:01:15;;;;;;;7.55;4.60;;;13.00;80.90;;;;;;5048233;28;20044;-76
2024/01/12 10:04:20;;;;;;;12.05;5.63;;;;;;;;;;5048099;28;20052;-74
2024/01/12 10:07:25;;;;;;;10.30;5.50;;;;;;;;;;5048412;28;20128;-79
2024/01/12 10:10:29;;;;;;;16.30;5.28;;;;;;;;;;5047675;28;20036;-75
2024/01/12 10:13:33;;;;;;;12.75;5.25;;;;;;;;;;5094908;28;20113;-74
2024/01/12 10:16:39;;;;;;;10.65;5.00;;;;;;;;;;5047699;28;20044;-74
2024/01/12 10:19:43;;;;;;;10.23;5.97;;;;;;;;;;5047955;28;20060;-74
2024/01/12 10:22:58;;;;;;;10.93;5.72;;;13.60;79.80;;;;;;5047455;28;20511;-72
2024/01/12 10:26:04;;;;;;;11.95;5.50;;;13.50;80.00;;;;;;5095223;28;20504;-76
2024/01/12 10:29:08;;;;;;;10.98;5.75;;;;;;;;;;5047445;28;20114;-74
2024/01/12 10:32:12;;;;;;;12.13;6.32;;;;;;;;;;5095190;28;20052;-72
2024/01/12 10:35:17;;;;;;;11.88;6.25;;;;;;;;;;5094889;28;20044;-73
2024/01/12 10:38:23;;;;;;;16.08;7.22;;;14.30;79.90;;;;;;5049644;28;20044;-73
2024/01/12 10:41:27;;;;;;;11.60;5.85;;;;;;;;;;5051442;28;20044;-74
2024/01/12 10:44:35;;;;;;;11.10;6.28;;;14.00;78.70;;;;;;5050854;28;20064;-75
2024/01/12 10:47:42;;;;;;;15.07;6.10;;;14.00;78.50;;;;;;5051064;28;20040;-71
2024/01/12 10:50:52;;;;;;;12.45;6.10;;;14.30;78.90;;;;;;5098679;27;20056;-77
2024/01/12 10:54:01;;;;;;;11.77;6.68;;;14.40;78.30;;;;;;5051393;28;20400;-78
2024/01/12 10:57:05;;;;;;;13.15;6.38;;;;;;;;;;5052490;28;20426;-79
2024/01/12 11:00:14;;;;;;;12.45;6.43;;;;;;;;;;5089104;28;20040;-79
2024/01/12 11:03:19;;;;;;;15.48;7.57;;;;;;;;;;5050524;28;20063;-77
2024/01/12 11:06:24;;;;;;;12.93;7.00;;;14.00;79.40;;;;;;5050549;28;20044;-72
2024/01/12 11:09:29;;;;;;;10.80;6.57;;;;;;;;;;5050705;28;20052;-72
2024/01/12 11:12:36;;;;;;;13.77;7.03;;;14.70;78.60;;;;;;5050619;28;20055;-78
2024/01/12 11:15:41;;;;;;;13.85;6.40;;;14.20;78.50;;;;;;5050336;28;20099;-74
2024/01/12 11:18:45;;;;;;;14.98;7.32;;;;;;;;;;5097869;27;20056;-76
2024/01/12 11:21:49;;;;;;;15.05;7.15;;;;;;;;;;5050286;28;20052;-75
2024/01/12 11:24:54;;;;;;;15.25;6.90;;;;;;;;;;5050188;28;20064;-77
2024/01/12 11:27:58;;;;;;;12.65;6.50;;;;;;;;;;5050328;28;20048;-75
2024/01/12 11:31:02;;;;;;;16.98;8.52;;;;;;;;;;5097509;27;20048;-79
2024/01/12 11:34:07;;;;;;;16.20;8.60;;;14.10;79.10;;;;;;5050397;28;20040;-79
2024/01/12 11:37:11;;;;;;;14.18;7.07;;;;;;;;;;5050524;28;20056;-79
2024/01/12 11:40:16;;;;;;;16.58;8.20;;;;;;;;;;5098441;27;20032;-81
2024/01/12 11:43:22;;;;;;;25.52;8.05;;;;;;;;;;5051287;28;20638;-78
2024/01/12 11:46:29;;;;;;;16.60;7.18;;;;;;;;;;5049895;28;20044;-77
2024/01/12 11:49:34;;;;;;;50.00;7.80;;;;;;;;;;5050377;28;20044;-73
2024/01/12 11:52:38;;;;;;;13.00;6.43;;;;;;;;;;5050275;28;20103;-73
2024/01/12 11:55:44;;;;;;;17.02;6.57;;;12.70;79.80;;;;;;5052055;28;20404;-76
2024/01/12 11:58:48;;;;;;;21.65;6.63;;;;;;;;;;5050125;28;20535;-75
2024/01/12 12:01:52;;;;;;;12.13;6.05;;;;;;;;;;5097276;27;20036;-79
2024/01/12 12:04:57;;;;;;;10.80;6.20;;;;;;;;;;5049590;28;20060;-76
2024/01/12 12:08:02;;;;;;;16.25;5.72;;;12.20;81.60;;;;;;5048573;28;20044;-75
2024/01/12 12:11:06;;;;;;;14.07;5.97;;;12.10;82.80;;;;;;5049127;28;20052;-74
2024/01/12 12:14:11;;;;;;;21.13;5.57;;;11.90;82.40;;;;;;5049670;28;20110;-76
2024/01/12 12:17:14;;;;;;;12.23;4.80;;;12.20;80.50;;;;;;5049028;28;20048;-78
2024/01/12 12:20:19;;;;;;;16.60;5.47;;;12.10;81.20;;;;;;5049649;28;20052;-73
2024/01/12 12:23:24;;;;;;;9.85;3.38;;;12.10;78.20;;;;;;5097116;27;20523;-74
2024/01/12 12:26:28;;;;;;;14.00;4.55;;;12.20;78.30;;;;;;5049236;28;20044;-77
2024/01/12 12:29:33;;;;;;;10.52;4.55;;;13.00;77.20;;;;;;5049226;28;20047;-75
2024/01/12 12:32:45;;;;;;;7.75;3.70;;;12.20;78.50;;;;;;5096846;27;20047;-76
2024/01/12 12:36:02;;;;;;;6.18;3.72;;;12.70;77.60;;;;;;5049177;28;20511;-72
2024/01/12 12:39:09;;;;;;;8.20;3.88;;;;;;;;;;5096903;27;20052;-74
2024/01/12 12:42:13;;;;;;;10.05;4.75;;;;;;;;;;5048737;28;20488;-74
2024/01/12 12:45:20;;;;;;;9.88;3.92;;;;;;;;;;5048933;28;20052;-73
2024/01/12 12:48:26;;;;;;;7.85;3.80;;;12.70;77.00;;;;;;5048913;28;20365;-74
2024/01/12 12:51:30;;;;;;;8.00;3.53;;;;;;;;;;5048859;28;20052;-73
2024/01/12 12:54:36;;;;;;;9.50;4.43;;;;;;;;;;5048646;28;20489;-74
2024/01/12 12:57:41;;;;;;;15.50;3.97;;;;;;;;;;5096233;27;20041;-75
2024/01/12 13:00:45;;;;;;;8.95;3.47;;;;;;;;;;5048036;28;20514;-78
2024/01/12 13:03:50;;;;;;;6.07;3.75;;;;;;;;;;5048553;28;20044;-76
2024/01/12 13:06:54;;;;;;;7.63;3.55;;;;;;;;;;5048734;28;20029;-74
2024/01/12 13:09:59;;;;;;;9.68;3.40;;;;;;;;;;5048674;28;20041;-72
2024/01/12 13:13:04;;;;;;;9.07;3.92;;;;;;;;;;5048870;28;20362;-73
2024/01/12 13:16:08;;;;;;;11.85;3.72;;;;;;;;;;5096275;27;20036;-72
2024/01/12 13:19:12;;;;;;;7.80;3.47;;;;;;;;;;5048318;28;20702;-72
2024/01/12 13:22:17;;;;;;;6.55;3.00;;;;;;;;;;5096050;27;20053;-72
2024/01/12 13:25:21;;;;;;;11.05;3.40;;;;;;;;;;5048354;28;20045;-73
2024/01/12 13:28:27;;;;;;;8.07;3.35;;;;;;;;;;5096058;27;20052;-73
2024/01/12 13:31:35;;;;;;;14.63;3.70;;;12.60;80.70;;;;;;5048231;28;20037;-73
2024/01/12 13:34:39;;;;;;;11.57;4.20;;;;;;;;;;5048215;28;20063;-74
2024/01/12 13:37:44;;;;;;;7.03;3.80;;;;;;;;;;5048109;28;20114;-81
2024/01/12 13:40:48;;;;;;;12.60;5.00;;;;;;;;;;5048468;28;20037;-72
2024/01/12 13:43:52;;;;;;;14.02;4.90;;;;;;;;;;5047819;28;20052;-75
2024/01/12 13:46:56;;;;;;;9.95;4.38;;;;;;;;;;5095828;27;20044;-73
2024/01/12 13:50:01;;;;;;;10.55;4.95;;;;;;;;;;5048377;28;20504;-72
2024/01/12 13:53:05;;;;;;;9.98;5.03;;;;;;;;;;5048303;28;20048;-73
2024/01/12 13:56:09;;;;;;;10.77;4.60;;;;;;;;;;5095826;27;20029;-73
2024/01/12 13:59:14;;;;;;;11.02;5.35;;;;;;;;;;5048203;28;20044;-73
2024/01/12 14:02:18;;;;;;;9.88;5.28;;;;;;;;;;5047913;28;20067;-72
2024/01/12 14:05:22;;;;;;;11.70;5.05;;;;;;;;;;5095529;28;20049;-72
2024/01/12 14:08:28;;;;;;;16.33;6.68;;;12.50;81.80;;;;;;5047936;28;20412;-72
2024/01/12 14:11:33;;;;;;;14.18;6.05;;;12.40;81.80;;;;;;5049557;28;20052;-73
2024/01/12 14:14:38;;;;;;;9.75;5.63;;;;;;;;;;5051195;28;20112;-73
2024/01/12 14:17:42;;;;;;;11.25;5.63;;;;;;;;;;5099272;27;20041;-73
2024/01/12 14:20:48;;;;;;;12.63;6.60;;;;;;;;;;5051213;28;20044;-73
2024/01/12 14:23:52;;;;;;;11.35;6.13;;;;;;;;;;5051004;28;20064;-74
2024/01/12 14:26:56;;;;;;;16.15;6.53;;;;;;;;;;5051096;28;20048;-73
2024/01/12 14:30:01;;;;;;;17.02;5.82;;;;;;;;;;5051356;28;20072;-73
2024/01/12 14:33:07;;;;;;;13.20;5.90;;;;;;;;;;5098787;27;20040;-73
2024/01/12 14:36:11;;;;;;;17.13;6.68;;;;;;;;;;5051052;28;20044;-74
2024/01/12 14:39:15;;;;;;;15.75;6.40;;;;;;;;;;5051052;28;20050;-73
2024/01/12 14:42:20;;;;;;;19.65;6.82;;;;;;;;;;5050853;28;20055;-73
2024/01/12 14:45:24;;;;;;;16.23;7.13;;;;;;;;;;5098680;27;20528;-73
2024/01/12 14:48:30;;;;;;;13.07;6.60;;;;;;;;;;5050910;28;20610;-74
2024/01/12 14:51:35;;;;;;;12.13;6.03;;;;;;;;;;5099007;27;20645;-72
2024/01/12 14:54:39;;;;;;;14.48;6.40;;;12.00;85.50;;;;;;5087031;28;20048;-72
2024/01/12 14:57:44;;;;;;;14.98;6.07;;;;;;;;;;5050654;28;20036;-72
2024/01/12 15:00:48;;;;;;;19.35;8.50;;;;;;;;;;5050499;28;20052;-73
2024/01/12 15:03:53;;;;;;;15.98;7.07;;;;;;;;;;5050415;28;20657;-75
2024/01/12 15:06:57;;;;;;;12.82;5.53;;;11.70;87.10;;;;;;5050728;28;20040;-73
2024/01/12 15:10:02;;;;;;;15.77;5.85;;;11.90;86.10;;;;;;5050437;28;20044;-74
2024/01/12 15:13:06;;;;;;;10.82;5.72;;;11.20;86.90;;;;;;5098656;27;20069;-75
2024/01/12 15:16:10;;;;;;;11.00;6.45;;;10.90;88.40;;;;;;5050476;28;20036;-77
2024/01/12 15:19:14;;;;;;;13.13;5.68;;;;;;;;;;5050051;28;20412;-73
2024/01/12 15:22:19;;;;;;;12.57;5.22;;;11.20;89.10;;;;;;5050361;28;20044;-73
2024/01/12 15:25:23;;;;;;;11.70;5.75;;;11.50;87.60;;;;;;5050332;28;20056;-73
2024/01/12 15:28:27;;;;;;;14.80;6.32;;;11.30;86.90;;;;;;5050796;28;20051;-72
2024/01/12 15:31:31;;;;;;;14.40;5.57;;;10.70;88.80;;;;;;5050490;28;20067;-74
2024/01/12 15:34:37;;;;;;;8.38;4.93;;;10.90;88.40;;;;;;5097932;27;20044;-72
2024/01/12 15:37:41;;;;;;;10.30;4.95;;;10.70;88.40;;;;;;5098042;27;20055;-74
2024/01/12 15:40:44;;;;;;;11.65;5.65;;;11.00;85.90;;;;;;5097538;27;20116;-73
2024/01/12 15:43:48;;;;;;;8.43;4.38;;;11.90;88.70;;;;;;5085755;28;20052;-74
2024/01/12 15:46:52;;;;;;;9.50;5.05;;;10.70;89.00;;;;;;5049660;28;20051;-72
2024/01/12 15:49:56;;;;;;;27.75;5.68;;;10.50;88.60;;;;;;5097721;27;20519;-73
2024/01/12 15:53:00;;;;;;;7.55;3.70;;;12.80;90.10;;;;;;5049813;28;20043;-73
2024/01/12 15:56:05;;;;;;;9.40;3.75;;;11.00;86.80;;;;;;5049802;28;20040;-73
2024/01/12 15:59:09;;;;;;;9.07;3.97;;;13.40;90.20;;;;;;5049567;28;20479;-73
2024/01/12 16:02:13;;;;;;;9.13;3.45;;;10.30;88.20;;;;;;5049504;28;20040;-74
2024/01/12 16:05:17;;;;;;;7.68;3.67;;;;;;;;;;5049715;28;20068;-72
2024/01/12 16:08:21;;;;;;;8.93;4.53;;;;;;;;;;5049870;28;20041;-72
2024/01/12 16:11:25;;;;;;;9.75;5.05;;;10.40;88.80;;;;;;5097413;27;20045;-72
2024/01/12 16:14:40;;;;;;;15.40;5.95;;;10.50;89.50;;;;;;5097162;27;20052;-71
2024/01/12 16:17:44;;;;;;;20.33;10.05;;;10.20;89.40;;;;;;5049479;28;20075;-73
2024/01/12 16:20:48;;;;;;;16.13;8.93;;;11.30;90.00;;;;;;5049701;28;20499;-69
2024/01/12 16:23:52;;;;;;;16.73;6.90;;;10.20;88.90;;;;;;5049139;28;20067;-69
2024/01/12 16:26:56;;;;;;;22.50;11.82;;;10.20;89.10;;;;;;5097393;27;20143;-69
2024/01/12 16:30:00;;;;;;;9.13;4.82;;;;;;;;;;5049304;28;20404;-70
2024/01/12 16:33:05;;;;;;;7.72;3.95;;;;;;;;;;5049091;28;20045;-71
2024/01/12 16:36:09;;;;;;;8.20;4.90;;;10.00;89.10;;;;;;5095751;27;20037;-70
2024/01/12 16:39:13;;;;;;;11.18;4.75;;;11.00;90.10;;;;;;5049023;28;20060;-69
2024/01/12 16:42:17;;;;;;;11.93;5.30;;;;;;;;;;5049117;28;20048;-70
2024/01/12 16:45:21;;;;;;;10.68;5.28;;;10.50;86.90;;;;;;5048943;28;20052;-69